Time;durP1;ratioP1;P1;durP2;ratioP2;P2;SDS_P1;SDS_P2;PMS_P1;PMS_P2;Temp;Humidity;BMP_temperature;BMP_pressure;BME280_temperature;BME280_humidity;BME280_pressure;Samples;Min_cycle;Max_cycle;Signal;HPM_P1;HPM_P2
2023/07/10 00:00:22;;;;;;;5.32;4.28;;;;;;;;;;4977023;28;20169;-75
2023/07/10 00:02:49;;;;;;;4.63;3.92;;;;;;;;;;4978090;28;20034;-76
2023/07/10 00:05:16;;;;;;;3.72;3.42;;;;;;;;;;4969624;28;21261;-76
2023/07/10 00:07:41;;;;;;;4.07;3.65;;;;;;;;;;4984123;28;20028;-76
2023/07/10 00:10:10;;;;;;;4.63;4.07;;;;;;;;;;4982643;28;20098;-77
2023/07/10 00:12:35;;;;;;;3.95;3.55;;;;;;;;;;4984847;28;20022;-78
2023/07/10 00:15:01;;;;;;;7.22;3.97;;;;;;;;;;4968639;28;20030;-77
2023/07/10 00:17:26;;;;;;;7.05;4.60;;;;;;;;;;4970725;28;20604;-77
2023/07/10 00:19:52;;;;;;;4.70;3.67;;;;;;;;;;4982157;28;20471;-76
2023/07/10 00:22:17;;;;;;;5.60;3.90;;;;;;;;;;4979260;28;20022;-75
2023/07/10 00:24:42;;;;;;;6.35;4.00;;;;;;;;;;4977970;28;20081;-75
2023/07/10 00:27:12;;;;;;;5.43;4.43;;;;;;;;;;4969184;28;20077;-75
2023/07/10 00:29:38;;;;;;;4.47;4.00;;;;;;;;;;4972702;28;20030;-75
2023/07/10 00:32:10;;;;;;;5.00;3.90;;;;;;;;;;4971400;28;20077;-77
2023/07/10 00:34:36;;;;;;;4.63;3.60;;;;;;;;;;4978034;28;20385;-77
2023/07/10 00:37:01;;;;;;;4.88;3.63;;;;;;;;;;4969132;28;20080;-77
2023/07/10 00:39:29;;;;;;;5.28;3.58;;;;;;;;;;4976000;28;20600;-77
2023/07/10 00:42:08;;;;;;;4.70;3.92;;;;;;;;;;4980371;28;20466;-76
2023/07/10 00:44:41;;;;;;;6.20;3.70;;;;;;;;;;4976516;28;20026;-77
2023/07/10 00:47:22;;;;;;;4.03;3.63;;;;;;;;;;4970677;28;20022;-77
2023/07/10 00:50:04;;;;;;;4.05;3.42;;;;;;;;;;4967483;28;20026;-77
2023/07/10 00:52:38;;;;;;;5.20;4.10;;;;;;;;;;4968519;28;20033;-77
2023/07/10 00:55:17;;;;;;;5.00;3.97;;;;;;;;;;4978885;28;20030;-76
2023/07/10 00:57:45;;;;;;;3.50;3.20;;;;;;;;;;4976642;28;20648;-77
2023/07/10 01:00:22;;;;;;;3.75;3.35;;;;;;;;;;4968586;28;20898;-77
2023/07/10 01:02:48;;;;;;;4.95;3.72;;;;;;;;;;4978975;28;20045;-77
2023/07/10 01:05:16;;;;;;;4.07;3.67;;;;;;;;;;4979315;28;20026;-77
2023/07/10 01:07:47;;;;;;;4.00;3.60;;;;;;;;;;4981771;28;20033;-76
2023/07/10 01:10:12;;;;;;;3.92;3.53;;;;;;;;;;4972305;28;20026;-77
2023/07/10 01:12:40;;;;;;;4.40;3.63;;;;;;;;;;4974299;28;20030;-77
2023/07/10 01:15:06;;;;;;;5.90;4.03;;;;;;;;;;4981926;28;20480;-78
2023/07/10 01:17:33;;;;;;;6.05;4.20;;;;;;;;;;4976152;28;20431;-77
2023/07/10 01:20:20;;;;;;;5.25;3.50;;;;;;;;;;4977481;28;20109;-78
2023/07/10 01:22:45;;;;;;;5.63;3.95;;;;;;;;;;4972462;28;20057;-78
2023/07/10 01:25:10;;;;;;;5.40;3.97;;;;;;;;;;4979099;28;20675;-77
2023/07/10 01:27:36;;;;;;;6.18;3.92;;;;;;;;;;4985325;28;20030;-78
2023/07/10 01:30:21;;;;;;;4.38;3.72;;;;;;;;;;4981214;28;20026;-77
2023/07/10 01:32:47;;;;;;;5.18;3.72;;;;;;;;;;4966730;28;20069;-77
2023/07/10 01:35:15;;;;;;;4.35;3.80;;;;;;;;;;4977555;28;20054;-76
2023/07/10 01:37:40;;;;;;;4.13;3.55;;;;;;;;;;4981677;28;20030;-76
2023/07/10 01:40:11;;;;;;;4.10;3.42;;;;;;;;;;4978881;28;20399;-77
2023/07/10 01:42:37;;;;;;;5.25;3.17;;;;;;;;;;4970979;28;20031;-77
2023/07/10 01:45:11;;;;;;;4.72;3.78;;;;;;;;;;4968171;28;20033;-77
2023/07/10 01:47:36;;;;;;;5.15;3.90;;;;;;;;;;4976010;28;20544;-77
2023/07/10 01:50:02;;;;;;;8.30;4.38;;;;;;;;;;4978757;28;20121;-77
2023/07/10 01:52:27;;;;;;;6.22;4.65;;;;;;;;;;4978019;28;20029;-77
2023/07/10 01:54:53;;;;;;;5.38;3.78;;;;;;;;;;4967562;28;20472;-77
2023/07/10 01:57:23;;;;;;;6.28;4.97;;;;;;;;;;4975857;28;20054;-77
2023/07/10 01:59:50;;;;;;;5.07;3.63;;;;;;;;;;4972792;28;20062;-77
2023/07/10 02:02:16;;;;;;;5.82;4.60;;;;;;;;;;4967531;28;20248;-77
2023/07/10 02:04:41;;;;;;;4.97;4.47;;;;;;;;;;4970566;28;20026;-77
2023/07/10 02:07:06;;;;;;;6.30;4.50;;;;;;;;;;4970715;28;20022;-77
2023/07/10 02:09:32;;;;;;;4.75;3.92;;;;;;;;;;4981789;28;20504;-77
2023/07/10 02:11:58;;;;;;;5.45;4.47;;;;;;;;;;4978739;28;20045;-77
2023/07/10 02:14:23;;;;;;;6.15;4.90;;;;;;;;;;4976390;28;20537;-77
2023/07/10 02:16:49;;;;;;;6.75;5.10;;;;;;;;;;4967656;28;20093;-76
2023/07/10 02:19:15;;;;;;;5.95;5.00;;;;;;;;;;4976983;28;20057;-77
2023/07/10 02:21:41;;;;;;;6.60;4.43;;;;;;;;;;4977242;28;20044;-76
2023/07/10 02:24:07;;;;;;;5.70;4.72;;;;;;;;;;4978942;28;20057;-77
2023/07/10 02:26:32;;;;;;;7.93;5.20;;;;;;;;;;4965075;28;20488;-76
2023/07/10 02:28:59;;;;;;;4.43;4.03;;;;;;;;;;4967999;28;20031;-78
2023/07/10 02:31:25;;;;;;;4.65;4.03;;;;;;;;;;4977129;28;20029;-78
2023/07/10 02:33:50;;;;;;;5.60;3.97;;;;;;;;;;4978345;28;20018;-77
2023/07/10 02:36:16;;;;;;;5.65;4.15;;;;;;;;;;4980754;28;20027;-77
2023/07/10 02:38:42;;;;;;;4.10;3.65;;;;;;;;;;4969292;28;20035;-77
2023/07/10 02:41:08;;;;;;;5.80;4.00;;;;;;;;;;4975961;28;20384;-77
2023/07/10 02:43:34;;;;;;;6.55;3.58;;;;;;;;;;4976721;28;20390;-76
2023/07/10 02:45:59;;;;;;;6.85;4.93;;;;;;;;;;4957972;28;20039;-76
2023/07/10 02:48:24;;;;;;;4.38;3.97;;;;;;;;;;4974369;28;20019;-77
2023/07/10 02:50:50;;;;;;;4.55;3.88;;;;;;;;;;4971789;28;20452;-77
2023/07/10 02:53:15;;;;;;;5.38;4.13;;;;;;;;;;4982611;28;20050;-78
2023/07/10 02:55:41;;;;;;;4.55;3.75;;;;;;;;;;5077032;23;20058;-77
2023/07/10 02:58:06;;;;;;;6.53;4.35;;;;;;;;;;4989904;28;20065;-77
2023/07/10 03:00:32;;;;;;;5.25;4.10;;;;;;;;;;4985871;28;20197;-77
2023/07/10 03:02:58;;;;;;;5.05;4.03;;;;;;;;;;4989513;28;20030;-77
2023/07/10 03:05:24;;;;;;;7.40;4.40;;;;;;;;;;4985339;28;20054;-77
2023/07/10 03:07:50;;;;;;;4.50;4.10;;;;;;;;;;4980412;28;20102;-77
2023/07/10 03:10:16;;;;;;;7.20;4.07;;;;;;;;;;4978322;28;20119;-75
2023/07/10 03:12:42;;;;;;;4.38;3.72;;;;;;;;;;4973214;28;20063;-77
2023/07/10 03:15:08;;;;;;;4.72;3.60;;;;;;;;;;4974825;28;20054;-77
2023/07/10 03:17:33;;;;;;;4.20;3.75;;;;;;;;;;4977586;28;20031;-78
2023/07/10 03:19:59;;;;;;;5.13;3.92;;;;;;;;;;4982928;28;20026;-77
2023/07/10 03:22:24;;;;;;;6.97;4.85;;;;;;;;;;4977363;28;20042;-77
2023/07/10 03:24:54;;;;;;;6.38;4.80;;;;;;;;;;4976560;28;20037;-77
2023/07/10 03:27:20;;;;;;;7.33;4.93;;;;;;;;;;4977639;28;20566;-77
2023/07/10 03:29:46;;;;;;;6.45;4.93;;;;;;;;;;4987619;28;20022;-77
2023/07/10 03:32:11;;;;;;;8.65;5.00;;;;;;;;;;4977378;28;20568;-76
2023/07/10 03:34:37;;;;;;;6.80;4.63;;;;;;;;;;4970388;28;20043;-76
2023/07/10 03:37:03;;;;;;;5.35;4.50;;;;;;;;;;4980392;28;20034;-77
2023/07/10 03:39:29;;;;;;;7.25;4.57;;;;;;;;;;4987540;28;20019;-77
2023/07/10 03:41:54;;;;;;;6.68;4.20;;;;;;;;;;4985472;28;20037;-75
2023/07/10 03:44:20;;;;;;;4.30;3.88;;;;;;;;;;4972247;28;20046;-76
2023/07/10 03:46:45;;;;;;;5.65;4.70;;;;;;;;;;4971330;28;20388;-76
2023/07/10 03:49:11;;;;;;;5.13;4.43;;;;;;;;;;4983068;28;20050;-77
2023/07/10 03:51:36;;;;;;;5.50;3.83;;;;;;;;;;4989029;28;20546;-76
2023/07/10 03:54:02;;;;;;;3.95;3.55;;;;;;;;;;4980462;28;20080;-77
2023/07/10 03:56:28;;;;;;;6.80;5.18;;;;;;;;;;4976651;28;20498;-77
2023/07/10 03:58:53;;;;;;;7.45;5.10;;;;;;;;;;4982187;28;20046;-77
2023/07/10 04:01:18;;;;;;;5.35;4.30;;;;;;;;;;4975691;28;20034;-77
2023/07/10 04:03:44;;;;;;;5.28;4.15;;;;;;;;;;4986311;28;20154;-76
2023/07/10 04:06:14;;;;;;;3.67;3.28;;;;;;;;;;4970424;28;20061;-77
2023/07/10 04:08:41;;;;;;;5.43;4.18;;;;;;;;;;4977346;28;20033;-77
2023/07/10 04:11:11;;;;;;;5.78;4.55;;;;;;;;;;4978819;28;20026;-76
2023/07/10 04:13:37;;;;;;;4.68;4.28;;;;;;;;;;4973400;28;20022;-76
2023/07/10 04:16:07;;;;;;;5.72;4.65;;;;;;;;;;4973219;28;20113;-77
2023/07/10 04:18:35;;;;;;;7.07;4.72;;;;;;;;;;4971350;28;20381;-76
2023/07/10 04:21:03;;;;;;;5.80;4.47;;;;;;;;;;4973865;28;20487;-76
2023/07/10 04:23:29;;;;;;;5.72;4.45;;;;;;;;;;4971295;28;20107;-77
2023/07/10 04:25:55;;;;;;;5.85;4.00;;;;;;;;;;4967752;28;20097;-76
2023/07/10 04:28:21;;;;;;;6.00;4.50;;;;;;;;;;4968751;28;20033;-77
2023/07/10 04:30:47;;;;;;;5.43;4.50;;;;;;;;;;4970436;28;20038;-77
2023/07/10 04:33:14;;;;;;;5.60;4.57;;;;;;;;;;4970265;28;20030;-76
2023/07/10 04:35:41;;;;;;;5.72;5.10;;;;;;;;;;4971823;28;20439;-77
2023/07/10 04:38:07;;;;;;;6.07;4.65;;;;;;;;;;4978024;28;20376;-76
2023/07/10 04:40:32;;;;;;;4.35;3.80;;;;;;;;;;4969355;28;20041;-77
2023/07/10 04:42:57;;;;;;;5.68;5.07;;;;;;;;;;4967595;28;20399;-77
2023/07/10 04:45:23;;;;;;;6.15;4.78;;;;;;;;;;4970196;28;20105;-78
2023/07/10 04:47:48;;;;;;;5.20;4.20;;;;;;;;;;4974261;28;20535;-77
2023/07/10 04:50:14;;;;;;;6.70;4.38;;;;;;;;;;4971416;28;20033;-78
2023/07/10 04:52:39;;;;;;;3.60;3.30;;;;;;;;;;4973341;28;20034;-77
2023/07/10 04:55:05;;;;;;;7.40;4.90;;;;;;;;;;4975665;28;20038;-77
2023/07/10 04:57:30;;;;;;;8.35;5.47;;;;;;;;;;4969927;28;20611;-76
2023/07/10 04:59:56;;;;;;;5.13;3.88;;;;;;;;;;4969149;28;20797;-76
2023/07/10 05:02:21;;;;;;;4.88;4.10;;;;;;;;;;4969401;28;20031;-77
2023/07/10 05:04:47;;;;;;;5.05;4.35;;;;;;;;;;4969924;28;20027;-77
2023/07/10 05:07:12;;;;;;;5.47;4.60;;;;;;;;;;4969145;28;20023;-78
2023/07/10 05:09:37;;;;;;;6.82;5.07;;;;;;;;;;4982912;28;20030;-77
2023/07/10 05:12:03;;;;;;;6.90;5.40;;;;;;;;;;4970210;28;20022;-76
2023/07/10 05:14:29;;;;;;;5.32;4.82;;;;;;;;;;4971283;28;20364;-78
2023/07/10 05:16:54;;;;;;;7.25;5.13;;;;;;;;;;4976750;28;20133;-76
2023/07/10 05:19:20;;;;;;;7.80;5.80;;;;;;;;;;4982502;28;20022;-78
2023/07/10 05:21:45;;;;;;;5.28;4.78;;;;;;;;;;4975667;28;20101;-78
2023/07/10 05:24:10;;;;;;;8.05;5.65;;;;;;;;;;4974051;28;20439;-78
2023/07/10 05:26:36;;;;;;;8.00;5.13;;;;;;;;;;4984774;28;20026;-76
2023/07/10 05:29:01;;;;;;;8.27;5.95;;;;;;;;;;4977857;28;20024;-77
2023/07/10 05:31:27;;;;;;;8.48;5.25;;;;;;;;;;4971052;28;20451;-77
2023/07/10 05:33:52;;;;;;;7.53;5.72;;;;;;;;;;4962629;28;20037;-77
2023/07/10 05:36:18;;;;;;;5.78;5.13;;;;;;;;;;4967497;28;20061;-76
2023/07/10 05:38:48;;;;;;;5.80;5.13;;;;;;;;;;4968751;28;20704;-77
2023/07/10 05:41:17;;;;;;;4.28;3.88;;;;;;;;;;4975778;28;20741;-77
2023/07/10 05:43:42;;;;;;;6.00;3.83;;;;;;;;;;4968573;28;20089;-78
2023/07/10 05:46:08;;;;;;;4.00;3.42;;;;;;;;;;4971883;28;20023;-77
2023/07/10 05:48:33;;;;;;;6.30;5.03;;;;;;;;;;4969310;28;20436;-77
2023/07/10 05:50:59;;;;;;;7.50;5.53;;;;;;;;;;4969208;28;20019;-77
2023/07/10 05:53:24;;;;;;;7.57;5.32;;;;;;;;;;4961370;28;20022;-77
2023/07/10 05:55:52;;;;;;;13.75;6.78;;;;;;;;;;4971157;28;20080;-76
2023/07/10 05:58:19;;;;;;;8.90;5.97;;;;;;;;;;4972558;28;20038;-78
2023/07/10 06:00:47;;;;;;;7.85;5.57;;;;;;;;;;4967255;28;20057;-77
2023/07/10 06:03:12;;;;;;;9.30;5.82;;;;;;;;;;4966130;28;20031;-77
2023/07/10 06:05:38;;;;;;;8.55;5.78;;;;;;;;;;4967344;28;20027;-77
2023/07/10 06:08:04;;;;;;;8.70;5.60;;;;;;;;;;4967591;28;20022;-77
2023/07/10 06:10:30;;;;;;;8.02;6.15;;;;;;;;;;4969876;28;20073;-77
2023/07/10 06:12:55;;;;;;;8.98;5.90;;;;;;;;;;4966224;28;20035;-76
2023/07/10 06:15:20;;;;;;;7.38;5.97;;;;;;;;;;4967549;28;20026;-77
2023/07/10 06:17:46;;;;;;;7.93;5.85;;;;;;;;;;4970352;28;20056;-77
2023/07/10 06:20:11;;;;;;;7.00;5.32;;;;;;;;;;4971000;28;20165;-77
2023/07/10 06:22:37;;;;;;;6.47;4.88;;;;;;;;;;4969814;28;20023;-77
2023/07/10 06:25:02;;;;;;;7.78;5.65;;;;;;;;;;4972195;28;20041;-78
2023/07/10 06:27:28;;;;;;;7.85;5.60;;;;;;;;;;4967092;28;20442;-78
2023/07/10 06:29:53;;;;;;;5.97;5.03;;;;;;;;;;4966803;28;20058;-77
2023/07/10 06:32:19;;;;;;;6.47;4.55;;;;;;;;;;4971803;28;20570;-77
2023/07/10 06:34:45;;;;;;;4.10;3.40;;;;;;;;;;4966364;28;20053;-77
2023/07/10 06:37:10;;;;;;;7.70;4.15;;;;;;;;;;4955099;28;20050;-77
2023/07/10 06:39:36;;;;;;;6.63;4.20;;;;;;;;;;4967919;28;20411;-77
2023/07/10 06:42:01;;;;;;;5.80;4.45;;;;;;;;;;4969471;28;20027;-76
2023/07/10 06:44:27;;;;;;;4.70;3.70;;;;;;;;;;4970666;28;20023;-77
2023/07/10 06:46:52;;;;;;;4.28;3.80;;;;;;;;;;4972902;28;20678;-77
2023/07/10 06:49:17;;;;;;;4.38;3.88;;;;;;;;;;4969566;28;20029;-77
2023/07/10 06:51:43;;;;;;;6.40;4.57;;;;;;;;;;4969511;28;20030;-78
2023/07/10 06:54:10;;;;;;;3.33;3.03;;;;;;;;;;4930485;28;1139861;-78
2023/07/10 06:56:35;;;;;;;6.85;4.55;;;;;;;;;;4971840;28;20101;-78
2023/07/10 06:59:00;;;;;;;4.60;3.53;;;;;;;;;;4971663;28;20507;-78
2023/07/10 07:01:26;;;;;;;3.85;3.53;;;;;;;;;;4970915;28;20027;-78
2023/07/10 07:03:51;;;;;;;5.80;3.30;;;;;;;;;;4972419;28;20109;-78
2023/07/10 07:06:17;;;;;;;3.65;3.10;;;;;;;;;;4964650;28;20022;-78
2023/07/10 07:08:46;;;;;;;6.30;5.00;;;;;;;;;;4969890;28;20565;-78
2023/07/10 07:11:12;;;;;;;4.70;3.53;;;;;;;;;;4969614;28;20122;-78
2023/07/10 07:13:37;;;;;;;6.57;5.18;;;;;;;;;;4970821;28;20149;-79
2023/07/10 07:16:03;;;;;;;3.83;3.22;;;;;;;;;;4971256;28;20035;-78
2023/07/10 07:18:28;;;;;;;6.95;3.95;;;;;;;;;;4969630;28;20462;-78
2023/07/10 07:20:53;;;;;;;6.75;5.35;;;;;;;;;;4972749;28;20026;-78
2023/07/10 07:23:19;;;;;;;7.60;5.95;;;;;;;;;;4967792;28;20530;-78
2023/07/10 07:25:44;;;;;;;6.70;5.90;;;;;;;;;;4968074;28;20026;-78
2023/07/10 07:28:11;;;;;;;9.38;7.45;;;;;;;;;;4970856;28;20611;-77
2023/07/10 07:30:37;;;;;;;4.28;3.92;;;;;;;;;;4965372;28;20534;-78
2023/07/10 07:33:02;;;;;;;11.68;8.25;;;;;;;;;;4968603;28;20031;-78
2023/07/10 07:35:28;;;;;;;11.35;8.82;;;;;;;;;;4955798;28;20069;-78
2023/07/10 07:37:54;;;;;;;7.85;4.97;;;;;;;;;;4966047;28;20022;-78
2023/07/10 07:40:19;;;;;;;5.05;4.32;;;;;;;;;;4968682;28;20031;-78
2023/07/10 07:42:46;;;;;;;6.15;5.35;;;;;;;;;;4970480;28;20531;-78
2023/07/10 07:45:12;;;;;;;13.55;9.48;;;;;;;;;;4964454;28;20109;-78
2023/07/10 07:47:40;;;;;;;10.75;9.43;;;;;;;;;;4967863;28;20035;-78
2023/07/10 07:50:06;;;;;;;5.88;4.60;;;;;;;;;;4965708;28;20495;-78
2023/07/10 07:52:31;;;;;;;8.95;7.95;;;;;;;;;;4969551;28;20043;-78
2023/07/10 07:54:56;;;;;;;9.23;8.23;;;;;;;;;;4967633;28;20084;-78
2023/07/10 07:57:23;;;;;;;5.68;4.85;;;;;;;;;;4967892;28;20042;-78
2023/07/10 07:59:49;;;;;;;12.13;10.27;;;;;;;;;;4971688;28;20033;-77
2023/07/10 08:02:15;;;;;;;13.55;10.52;;;;;;;;;;4969458;28;20090;-78
2023/07/10 08:04:41;;;;;;;11.70;10.48;;;;;;;;;;4970762;28;20041;-78
2023/07/10 08:07:07;;;;;;;10.63;9.20;;;;;;;;;;4968852;28;20114;-78
2023/07/10 08:09:33;;;;;;;8.02;5.93;;;;;;;;;;4968721;28;20746;-78
2023/07/10 08:11:58;;;;;;;10.52;7.45;;;;;;;;;;4969991;28;20027;-78
2023/07/10 08:14:24;;;;;;;14.95;11.48;;;;;;;;;;4973206;28;20027;-77
2023/07/10 08:16:49;;;;;;;13.85;11.40;;;;;;;;;;4966637;28;20046;-78
2023/07/10 08:19:14;;;;;;;8.25;6.68;;;;;;;;;;4968454;28;20015;-77
2023/07/10 08:21:40;;;;;;;10.25;9.27;;;;;;;;;;4965541;28;20106;-77
2023/07/10 08:24:05;;;;;;;8.75;6.55;;;;;;;;;;4964844;28;20023;-77
2023/07/10 08:26:31;;;;;;;9.10;8.07;;;;;;;;;;4970206;28;20522;-76
2023/07/10 08:28:57;;;;;;;12.73;10.18;;;;;;;;;;4967663;28;20057;-77
2023/07/10 08:31:22;;;;;;;13.85;9.20;;;;;;;;;;4968678;28;20093;-77
2023/07/10 08:33:47;;;;;;;9.38;7.70;;;;;;;;;;4966264;28;20026;-78
2023/07/10 08:36:13;;;;;;;9.77;8.73;;;;;;;;;;4967429;28;20082;-79
2023/07/10 08:38:39;;;;;;;7.57;6.15;;;;;;;;;;4969792;28;20070;-78
2023/07/10 08:41:19;;;;;;;9.27;7.80;;;;;;;;;;4970113;28;20657;-78
2023/07/10 08:43:45;;;;;;;7.35;5.40;;;;;;;;;;4964651;28;20034;-78
2023/07/10 08:46:16;;;;;;;6.25;5.65;;;;;;;;;;4966551;28;20037;-78
2023/07/10 08:48:50;;;;;;;11.45;8.93;;;;;;;;;;4969878;28;20085;-78
2023/07/10 08:51:44;;;;;;;5.35;4.85;;;;;;;;;;4976855;28;20034;-76
2023/07/10 08:54:12;;;;;;;12.77;8.95;;;;;;;;;;4972540;28;20085;-77
2023/07/10 08:56:56;;;;;;;8.93;6.88;;;;;;;;;;4975169;28;20037;-75
2023/07/10 08:59:33;;;;;;;10.32;8.63;;;;;;;;;;4976168;28;20037;-78
2023/07/10 09:01:59;;;;;;;13.05;8.20;;;;;;;;;;4976300;28;20033;-76
2023/07/10 09:04:25;;;;;;;10.85;8.52;;;;;;;;;;4975988;28;20031;-77
2023/07/10 09:06:58;;;;;;;7.45;5.65;;;;;;;;;;4975259;28;20054;-77
2023/07/10 09:09:38;;;;;;;8.63;6.47;;;;;;;;;;4973913;28;20030;-76
2023/07/10 09:12:41;;;;;;;8.88;7.40;;;;;;;;;;4969958;28;20150;-76
2023/07/10 09:15:07;;;;;;;10.40;8.68;;;;;;;;;;4973818;28;20090;-76
2023/07/10 09:18:01;;;;;;;6.32;5.72;;;;;;;;;;4976508;28;20455;-77
2023/07/10 09:20:27;;;;;;;7.60;5.38;;;;;;;;;;4975340;28;20707;-77
2023/07/10 09:23:11;;;;;;;9.68;8.23;;;;;;;;;;4971168;28;20050;-78
2023/07/10 09:25:37;;;;;;;8.88;7.28;;;;;;;;;;4970738;28;20054;-76
2023/07/10 09:28:03;;;;;;;6.78;4.63;;;;;;;;;;4974852;28;20033;-76
2023/07/10 09:30:46;;;;;;;10.25;7.03;;;;;;;;;;4973417;28;20034;-77
2023/07/10 09:33:11;;;;;;;8.00;6.65;;;;;;;;;;4974634;28;20107;-77
2023/07/10 09:35:41;;;;;;;8.68;6.55;;;;;;;;;;4974982;28;20061;-76
2023/07/10 09:38:10;;;;;;;10.73;7.30;;;;;;;;;;4973276;28;20030;-76
2023/07/10 09:40:43;;;;;;;6.05;5.28;;;;;;;;;;4972072;28;20279;-77
2023/07/10 09:43:22;;;;;;;4.82;4.28;;;;;;;;;;4977675;28;20033;-76
2023/07/10 09:45:50;;;;;;;12.00;9.48;;;;;;;;;;4972367;28;20061;-76
2023/07/10 09:48:33;;;;;;;8.25;7.13;;;;;;;;;;4975470;28;20458;-77
2023/07/10 09:51:03;;;;;;;17.65;13.68;;;;;;;;;;4975358;28;20502;-76
2023/07/10 09:53:35;;;;;;;15.10;10.82;;;;;;;;;;4975215;28;20031;-77
2023/07/10 09:56:01;;;;;;;18.38;12.77;;;;;;;;;;4982606;28;20117;-75
2023/07/10 09:58:26;;;;;;;12.23;9.43;;;;;;;;;;4975542;28;20372;-76
2023/07/10 10:00:52;;;;;;;15.32;11.25;;;;;;;;;;4974280;28;20110;-76
2023/07/10 10:03:26;;;;;;;17.80;13.35;;;;;;;;;;4977516;28;20033;-76
2023/07/10 10:05:55;;;;;;;11.75;8.98;;;;;;;;;;4979250;28;20026;-78
2023/07/10 10:08:25;;;;;;;11.48;8.60;;;;;;;;;;4981961;28;20022;-76
2023/07/10 10:11:08;;;;;;;12.30;7.68;;;;;;;;;;4973608;28;20033;-75
2023/07/10 10:13:41;;;;;;;7.25;5.95;;;;;;;;;;4976775;28;20027;-77
2023/07/10 10:16:18;;;;;;;15.32;10.55;;;;;;;;;;4974371;28;20023;-76
2023/07/10 10:18:43;;;;;;;8.07;6.53;;;;;;;;;;4973991;28;20035;-76
2023/07/10 10:21:12;;;;;;;8.02;5.65;;;;;;;;;;4976039;28;20029;-77
2023/07/10 10:23:40;;;;;;;11.32;7.40;;;;;;;;;;4975265;28;20035;-78
2023/07/10 10:26:38;;;;;;;8.25;7.03;;;;;;;;;;4971509;28;20443;-76
2023/07/10 10:29:12;;;;;;;7.78;5.72;;;;;;;;;;4974950;28;20027;-77
2023/07/10 10:31:40;;;;;;;6.60;5.50;;;;;;;;;;4973739;28;20442;-75
2023/07/10 10:34:25;;;;;;;6.25;4.40;;;;;;;;;;4975662;28;20034;-76
2023/07/10 10:37:15;;;;;;;8.25;6.43;;;;;;;;;;4976382;28;20027;-76
2023/07/10 10:39:59;;;;;;;6.32;4.60;;;;;;;;;;4977693;28;20058;-77
2023/07/10 10:42:43;;;;;;;6.45;5.35;;;;;;;;;;4975914;28;20436;-78
2023/07/10 10:45:21;;;;;;;6.35;5.53;;;;;;;;;;4976788;28;20026;-78
2023/07/10 10:48:15;;;;;;;4.78;4.38;;;;;;;;;;4978913;28;20058;-77
2023/07/10 10:50:50;;;;;;;5.20;4.57;;;;;;;;;;4975963;28;20746;-75
2023/07/10 10:53:27;;;;;;;5.30;4.28;;;;;;;;;;4974114;28;20034;-76
2023/07/10 10:56:11;;;;;;;5.75;4.55;;;;;;;;;;4974023;28;20055;-76
2023/07/10 10:59:10;;;;;;;4.50;4.07;;;;;;;;;;4974282;28;20026;-75
2023/07/10 11:02:02;;;;;;;4.82;4.43;;;;;;;;;;4972283;28;20041;-78
2023/07/10 11:04:36;;;;;;;3.78;3.40;;;;;;;;;;4974369;28;20094;-77
2023/07/10 11:07:05;;;;;;;5.47;4.32;;;;;;;;;;4973440;28;20031;-77
2023/07/10 11:09:38;;;;;;;3.75;3.42;;;;;;;;;;4975979;28;20019;-76
2023/07/10 11:12:08;;;;;;;6.05;4.43;;;;;;;;;;4974242;28;20462;-77
2023/07/10 11:14:34;;;;;;;5.43;4.17;;;;;;;;;;4972000;28;20035;-76
2023/07/10 11:16:59;;;;;;;4.43;4.07;;;;;;;;;;4970816;28;20039;-75
2023/07/10 11:19:28;;;;;;;3.85;3.50;;;;;;;;;;4973454;28;20395;-75
2023/07/10 11:21:54;;;;;;;4.80;4.18;;;;;;;;;;4972453;28;20089;-78
2023/07/10 11:24:25;;;;;;;3.45;3.15;;;;;;;;;;4978852;28;20038;-77
2023/07/10 11:26:51;;;;;;;4.90;4.40;;;;;;;;;;4983535;28;20027;-76
2023/07/10 11:29:30;;;;;;;3.38;3.08;;;;;;;;;;4978553;28;20030;-75
2023/07/10 11:31:59;;;;;;;7.38;4.05;;;;;;;;;;4979024;28;20023;-78
2023/07/10 11:34:25;;;;;;;3.90;3.50;;;;;;;;;;4979197;28;20523;-76
2023/07/10 11:36:51;;;;;;;4.03;2.38;;;;;;;;;;4979520;28;20049;-77
2023/07/10 11:39:20;;;;;;;3.25;2.95;;;;;;;;;;4980704;28;20031;-76
2023/07/10 11:41:45;;;;;;;3.38;2.85;;;;;;;;;;4979095;28;20026;-77
2023/07/10 11:44:14;;;;;;;3.65;3.05;;;;;;;;;;4977526;28;20894;-77
2023/07/10 11:47:05;;;;;;;3.75;2.60;;;;;;;;;;4977853;28;20042;-75
2023/07/10 11:49:52;;;;;;;4.45;3.45;;;;;;;;;;4972151;28;20027;-78
2023/07/10 11:52:17;;;;;;;3.53;3.08;;;;;;;;;;4970223;28;20062;-78
2023/07/10 11:54:48;;;;;;;3.40;3.10;;;;;;;;;;4969264;28;20054;-78
2023/07/10 11:57:23;;;;;;;3.00;2.60;;;;;;;;;;4970280;28;20295;-78
2023/07/10 11:59:48;;;;;;;2.42;2.22;;;;;;;;;;4968758;28;20098;-77
2023/07/10 12:02:43;;;;;;;4.13;3.70;;;;;;;;;;4971627;28;20487;-78
2023/07/10 12:05:32;;;;;;;2.92;2.63;;;;;;;;;;4966868;28;20018;-79
2023/07/10 12:08:16;;;;;;;4.20;2.47;;;;;;;;;;4979852;28;20034;-77
2023/07/10 12:10:47;;;;;;;3.47;2.88;;;;;;;;;;4970033;28;20034;-77
2023/07/10 12:13:19;;;;;;;2.75;2.55;;;;;;;;;;4973002;28;20114;-78
2023/07/10 12:15:46;;;;;;;3.50;2.70;;;;;;;;;;4970826;28;20035;-78
2023/07/10 12:18:35;;;;;;;2.88;2.63;;;;;;;;;;4962081;28;20438;-78
2023/07/10 12:21:03;;;;;;;5.25;3.58;;;;;;;;;;4969337;28;20049;-78
2023/07/10 12:23:29;;;;;;;3.40;3.10;;;;;;;;;;4966124;28;20046;-78
2023/07/10 12:25:58;;;;;;;2.65;2.45;;;;;;;;;;4969537;28;20077;-78
2023/07/10 12:28:25;;;;;;;3.63;3.33;;;;;;;;;;4970459;28;20022;-78
2023/07/10 12:30:53;;;;;;;3.63;3.33;;;;;;;;;;4970300;28;20026;-78
2023/07/10 12:33:45;;;;;;;3.83;3.42;;;;;;;;;;4969578;28;20030;-78
2023/07/10 12:36:23;;;;;;;3.50;3.20;;;;;;;;;;4965123;28;20033;-77
2023/07/10 12:38:50;;;;;;;4.97;3.40;;;;;;;;;;4970735;28;20023;-78
2023/07/10 12:41:18;;;;;;;4.20;3.40;;;;;;;;;;4973302;28;20039;-78
2023/07/10 12:43:47;;;;;;;3.28;2.53;;;;;;;;;;4975107;28;20038;-78
2023/07/10 12:46:21;;;;;;;3.63;3.33;;;;;;;;;;4964737;28;20674;-78
2023/07/10 12:48:52;;;;;;;4.10;3.70;;;;;;;;;;4970442;28;20027;-78
2023/07/10 12:51:28;;;;;;;4.93;3.42;;;;;;;;;;4969132;28;20026;-78
2023/07/10 12:53:53;;;;;;;3.03;2.72;;;;;;;;;;4969220;28;20037;-78
2023/07/10 12:56:30;;;;;;;3.30;3.00;;;;;;;;;;4969056;28;20043;-78
2023/07/10 12:59:12;;;;;;;2.80;2.35;;;;;;;;;;4967913;28;20030;-78
2023/07/10 13:01:37;;;;;;;3.40;2.63;;;;;;;;;;4961603;28;20027;-77
2023/07/10 13:04:02;;;;;;;3.47;3.08;;;;;;;;;;4967402;28;20031;-78
2023/07/10 13:06:28;;;;;;;3.13;2.83;;;;;;;;;;4967438;28;20115;-78
2023/07/10 13:08:56;;;;;;;3.72;3.05;;;;;;;;;;4968540;28;20033;-79
2023/07/10 13:11:23;;;;;;;5.28;3.58;;;;;;;;;;4966643;28;20403;-78
2023/07/10 13:13:49;;;;;;;4.10;3.17;;;;;;;;;;4967411;28;21038;-78
2023/07/10 13:16:18;;;;;;;3.38;3.08;;;;;;;;;;4968684;28;20510;-79
2023/07/10 13:18:43;;;;;;;4.10;3.67;;;;;;;;;;4973914;28;20472;-78
2023/07/10 13:21:18;;;;;;;3.90;3.58;;;;;;;;;;4969441;28;20114;-79
2023/07/10 13:23:44;;;;;;;4.22;3.83;;;;;;;;;;4967231;28;20039;-77
2023/07/10 13:26:19;;;;;;;2.72;2.50;;;;;;;;;;4967899;28;20026;-78
2023/07/10 13:28:46;;;;;;;7.72;3.70;;;;;;;;;;4969275;28;20101;-77
2023/07/10 13:31:13;;;;;;;3.63;3.33;;;;;;;;;;4967499;28;20027;-78
2023/07/10 13:33:38;;;;;;;3.63;3.33;;;;;;;;;;4970118;28;20031;-78
2023/07/10 13:36:16;;;;;;;2.80;2.60;;;;;;;;;;4967744;28;20085;-78
2023/07/10 13:38:43;;;;;;;4.10;3.70;;;;;;;;;;4965257;28;20109;-78
2023/07/10 13:41:16;;;;;;;3.65;3.35;;;;;;;;;;4951225;28;20046;-78
2023/07/10 13:43:42;;;;;;;5.03;3.17;;;;;;;;;;4971128;28;20058;-78
2023/07/10 13:46:16;;;;;;;3.88;3.45;;;;;;;;;;4967081;28;20057;-77
2023/07/10 13:48:41;;;;;;;3.55;3.25;;;;;;;;;;4975111;28;20058;-77
2023/07/10 13:51:10;;;;;;;3.28;2.97;;;;;;;;;;4971161;28;20683;-77
2023/07/10 13:53:35;;;;;;;4.05;3.35;;;;;;;;;;4975213;28;20118;-77
2023/07/10 13:56:01;;;;;;;3.00;2.70;;;;;;;;;;4965328;28;20121;-77
2023/07/10 13:58:26;;;;;;;5.05;4.13;;;;;;;;;;4967084;28;20077;-77
2023/07/10 14:00:57;;;;;;;3.35;2.90;;;;;;;;;;4971172;28;20081;-78
2023/07/10 14:03:23;;;;;;;3.50;2.63;;;;;;;;;;4967657;28;20029;-78
2023/07/10 14:05:50;;;;;;;5.13;3.25;;;;;;;;;;4968099;28;20031;-77
2023/07/10 14:08:16;;;;;;;4.20;3.08;;;;;;;;;;4967681;28;20022;-78
2023/07/10 14:10:41;;;;;;;3.63;3.30;;;;;;;;;;4967794;28;20100;-78
2023/07/10 14:13:10;;;;;;;3.45;3.08;;;;;;;;;;4972006;28;20023;-77
2023/07/10 14:15:40;;;;;;;4.60;3.17;;;;;;;;;;4969038;28;20117;-77
2023/07/10 14:18:20;;;;;;;2.90;2.63;;;;;;;;;;4967339;28;20058;-78
2023/07/10 14:20:46;;;;;;;4.10;2.80;;;;;;;;;;4967995;28;20037;-77
2023/07/10 14:23:16;;;;;;;3.03;2.72;;;;;;;;;;4967278;28;20109;-79
2023/07/10 14:25:42;;;;;;;;;;;;;;;;;;4966280;28;20339;-78
2023/07/10 14:28:18;;;;;;;4.53;3.13;;;;;;;;;;4967968;28;19920;-77
2023/07/10 14:30:44;;;;;;;2.95;2.50;;;;;;;;;;4961436;28;20582;-77
2023/07/10 14:33:11;;;;;;;3.53;2.55;;;;;;;;;;4967081;28;20027;-78
2023/07/10 14:35:38;;;;;;;2.40;2.20;;;;;;;;;;4971631;28;20027;-78
2023/07/10 14:38:20;;;;;;;3.38;3.08;;;;;;;;;;4968522;28;20038;-78
2023/07/10 14:40:47;;;;;;;4.00;2.58;;;;;;;;;;4964071;28;20145;-78
2023/07/10 14:43:12;;;;;;;5.38;2.80;;;;;;;;;;4969668;28;20054;-78
2023/07/10 14:46:02;;;;;;;3.33;2.55;;;;;;;;;;4960454;28;20101;-78
2023/07/10 14:48:27;;;;;;;2.60;2.40;;;;;;;;;;4964372;28;20035;-78
2023/07/10 14:50:53;;;;;;;3.08;2.72;;;;;;;;;;4965964;28;20494;-78